Time;durP1;ratioP1;P1;durP2;ratioP2;P2;SDS_P1;SDS_P2;PMS_P1;PMS_P2;Temp;Humidity;BMP_temperature;BMP_pressure;BME280_temperature;BME280_humidity;BME280_pressure;Samples;Min_cycle;Max_cycle;Signal;HPM_P1;HPM_P2
2021/12/21 00:00:29;;;;;;;11.80;5.55;;;0.30;50.00;;;;;;5031593;28;20394;-72
2021/12/21 00:02:55;;;;;;;12.90;6.30;;;0.30;49.40;;;;;;5031288;28;20501;-74
2021/12/21 00:05:25;;;;;;;13.93;6.38;;;0.20;50.40;;;;;;5032049;28;20853;-73
2021/12/21 00:07:52;;;;;;;11.93;5.80;;;0.20;50.80;;;;;;5032566;28;20795;-73
2021/12/21 00:10:20;;;;;;;12.40;4.90;;;0.10;50.70;;;;;;5034339;28;20391;-72
2021/12/21 00:13:02;;;;;;;12.20;5.35;;;0.00;51.20;;;;;;5035332;28;20501;-73
2021/12/21 00:15:50;;;;;;;14.27;5.80;;;0.10;51.90;;;;;;5033327;28;20449;-73
2021/12/21 00:18:41;;;;;;;19.67;9.50;;;0.10;51.60;;;;;;5034875;28;20501;-73
2021/12/21 00:21:31;;;;;;;10.30;4.90;;;0.10;51.30;;;;;;5032617;28;20379;-73
2021/12/21 00:24:01;;;;;;;12.65;4.80;;;0.10;52.90;;;;;;5030377;28;20387;-74
2021/12/21 00:26:27;;;;;;;11.38;5.30;;;0.00;53.60;;;;;;5032394;28;20375;-73
2021/12/21 00:29:01;;;;;;;11.10;5.00;;;-0.10;54.70;;;;;;5038025;28;20416;-72
2021/12/21 00:31:33;;;;;;;14.30;5.13;;;-0.10;55.70;;;;;;5033705;28;20399;-73
2021/12/21 00:34:00;;;;;;;6.88;4.30;;;0.00;54.80;;;;;;5043673;28;20397;-72
2021/12/21 00:36:27;;;;;;;9.07;4.18;;;-0.10;54.10;;;;;;5051782;28;20465;-73
2021/12/21 00:38:55;;;;;;;8.33;4.10;;;-0.10;53.80;;;;;;5051399;28;20400;-74
2021/12/21 00:41:21;;;;;;;9.88;4.40;;;-0.10;53.80;;;;;;5051292;28;20447;-72
2021/12/21 00:43:47;;;;;;;10.50;5.35;;;-0.20;53.80;;;;;;5050681;28;20386;-73
2021/12/21 00:46:14;;;;;;;10.45;4.90;;;-0.30;54.50;;;;;;5024634;28;20403;-73
2021/12/21 00:48:48;;;;;;;10.18;5.50;;;-0.30;55.90;;;;;;5024912;28;20399;-72
2021/12/21 00:51:14;;;;;;;8.88;4.20;;;-0.30;54.60;;;;;;5031117;28;20756;-72
2021/12/21 00:53:40;;;;;;;12.55;6.07;;;-0.40;54.90;;;;;;5031008;28;20406;-72
2021/12/21 00:56:06;;;;;;;9.63;5.25;;;-0.50;55.80;;;;;;5031617;28;20387;-73
2021/12/21 00:58:32;;;;;;;17.23;6.20;;;-0.60;57.70;;;;;;5030540;28;20397;-74
2021/12/21 01:01:03;;;;;;;14.77;5.65;;;-0.60;58.50;;;;;;5028974;28;20395;-73
2021/12/21 01:03:29;;;;;;;14.70;6.82;;;-0.60;59.70;;;;;;5010870;28;20476;-74
2021/12/21 01:06:07;;;;;;;10.80;4.73;;;-0.60;59.00;;;;;;5011613;28;20472;-73
2021/12/21 01:08:44;;;;;;;14.68;4.90;;;-0.70;59.60;;;;;;5011834;28;20391;-72
2021/12/21 01:11:16;;;;;;;11.43;4.32;;;-0.60;59.50;;;;;;5011264;28;20920;-73
2021/12/21 01:13:58;;;;;;;7.28;3.95;;;-0.60;58.10;;;;;;5029041;28;20422;-72
2021/12/21 01:16:35;;;;;;;8.13;4.80;;;-0.50;58.00;;;;;;5026330;28;20765;-72
2021/12/21 01:21:35;;;;;;;9.30;4.55;;;-0.70;59.20;;;;;;5030961;28;20398;-73
2021/12/21 01:26:55;;;;;;;13.07;4.93;;;-0.70;59.60;;;;;;5030870;28;20894;-73
2021/12/21 01:29:36;;;;;;;10.98;4.85;;;-0.60;58.90;;;;;;5030342;28;20410;-73
2021/12/21 01:32:14;;;;;;;12.90;5.22;;;-0.70;59.40;;;;;;5015536;28;20410;-74
2021/12/21 01:35:01;;;;;;;10.63;5.20;;;-0.50;59.20;;;;;;5030221;28;20394;-73
2021/12/21 01:43:17;;;;;;;9.02;4.30;;;-0.20;53.60;;;;;;5030186;28;20486;-73
2021/12/21 01:50:52;;;;;;;6.95;4.15;;;-0.60;57.90;;;;;;5011212;28;20496;-73
2021/12/21 01:53:17;;;;;;;8.25;3.70;;;-0.80;59.80;;;;;;5010434;28;20492;-73
2021/12/21 01:55:43;;;;;;;7.85;3.70;;;-0.80;60.80;;;;;;5010653;28;20878;-72
2021/12/21 01:58:09;;;;;;;13.87;7.40;;;-0.80;61.90;;;;;;5023462;28;20399;-73
2021/12/21 02:00:36;;;;;;;10.60;4.10;;;-0.70;60.00;;;;;;5029451;28;20853;-72
2021/12/21 02:03:02;;;;;;;8.60;4.40;;;-0.90;60.80;;;;;;5030284;28;20856;-72
2021/12/21 02:05:28;;;;;;;7.03;3.60;;;-1.00;62.10;;;;;;5029817;28;20458;-72
2021/12/21 02:07:54;;;;;;;4.72;3.25;;;-1.00;63.60;;;;;;5030859;28;20390;-72
2021/12/21 02:10:19;;;;;;;15.63;6.10;;;-1.00;62.00;;;;;;5032348;28;20420;-73
2021/12/21 02:12:45;;;;;;;8.35;4.97;;;-1.00;63.30;;;;;;5030908;28;20428;-74
2021/12/21 02:15:11;;;;;;;8.13;4.60;;;-1.10;64.10;;;;;;5028799;28;20770;-73
2021/12/21 02:20:38;;;;;;;10.07;5.28;;;-1.10;61.90;;;;;;5030565;28;20383;-73
2021/12/21 02:23:11;;;;;;;6.57;3.70;;;-1.10;61.90;;;;;;5028535;28;20433;-72
2021/12/21 02:30:42;;;;;;;8.50;3.42;;;-1.10;62.10;;;;;;5011255;28;20766;-72
2021/12/21 02:33:09;;;;;;;5.33;3.30;;;-1.10;61.20;;;;;;5015392;28;20416;-72
2021/12/21 02:35:34;;;;;;;5.40;2.63;;;-1.20;61.40;;;;;;5031636;28;20403;-72
2021/12/21 02:38:00;;;;;;;4.22;2.47;;;-1.20;61.10;;;;;;5033664;28;20437;-72
2021/12/21 02:40:25;;;;;;;3.63;2.60;;;-1.20;58.40;;;;;;5033814;28;20805;-72
2021/12/21 02:42:51;;;;;;;3.10;2.00;;;-1.00;58.00;;;;;;5032650;28;20474;-72
2021/12/21 02:45:17;;;;;;;4.43;2.78;;;-0.80;54.90;;;;;;5029249;28;20451;-73
2021/12/21 02:47:43;;;;;;;7.97;2.80;;;-0.90;54.60;;;;;;5013744;28;20424;-72
2021/12/21 02:50:08;;;;;;;6.30;2.55;;;-1.00;55.80;;;;;;5026512;28;20409;-72
2021/12/21 02:52:34;;;;;;;10.10;2.95;;;-1.00;56.80;;;;;;5030864;28;20900;-72
2021/12/21 02:55:01;;;;;;;3.10;2.57;;;-1.10;56.70;;;;;;5033626;28;20490;-72
2021/12/21 02:57:27;;;;;;;7.20;2.58;;;-1.20;58.20;;;;;;5025105;28;20419;-72
2021/12/21 02:59:52;;;;;;;4.40;2.50;;;-1.30;59.60;;;;;;5013581;28;20392;-71
2021/12/21 03:02:18;;;;;;;4.50;2.60;;;-1.30;61.10;;;;;;5013421;28;20388;-72
2021/12/21 03:04:45;;;;;;;9.47;3.33;;;-1.30;61.20;;;;;;5028004;28;20395;-72
2021/12/21 03:09:41;;;;;;;3.72;1.80;;;-1.20;60.80;;;;;;5033597;28;20749;-72
2021/12/21 03:12:29;;;;;;;4.22;2.40;;;-1.20;59.30;;;;;;5025770;28;20409;-73
2021/12/21 03:14:55;;;;;;;5.43;1.98;;;-1.20;58.90;;;;;;5013933;28;20471;-71
2021/12/21 03:17:21;;;;;;;7.10;2.97;;;-1.20;58.60;;;;;;5033973;28;20435;-73
2021/12/21 03:19:47;;;;;;;7.00;3.30;;;-1.30;58.60;;;;;;5049435;28;20416;-72
2021/12/21 03:22:14;;;;;;;3.85;2.47;;;-1.20;57.90;;;;;;5028422;28;20410;-73
2021/12/21 03:24:42;;;;;;;4.38;2.10;;;-1.30;57.40;;;;;;5033368;28;20387;-73
2021/12/21 03:27:08;;;;;;;6.35;2.80;;;-1.30;57.20;;;;;;5020474;28;20404;-73
2021/12/21 03:29:34;;;;;;;6.53;3.00;;;-1.40;57.60;;;;;;5032974;28;20406;-73
2021/12/21 03:32:01;;;;;;;5.00;2.30;;;-1.40;58.40;;;;;;5032807;28;20835;-73
2021/12/21 03:34:27;;;;;;;5.97;2.55;;;-1.40;58.60;;;;;;5020598;28;20739;-72
2021/12/21 03:36:52;;;;;;;7.00;2.50;;;-1.50;58.90;;;;;;5011681;28;20841;-73
2021/12/21 03:39:19;;;;;;;9.75;3.20;;;-1.40;58.70;;;;;;5012939;28;20388;-73
2021/12/21 03:41:54;;;;;;;14.70;3.57;;;-1.10;57.90;;;;;;5016225;28;20577;-72
2021/12/21 03:44:20;;;;;;;5.40;2.65;;;-1.30;58.60;;;;;;5032494;28;20383;-72
2021/12/21 03:46:50;;;;;;;10.15;3.00;;;-1.30;58.50;;;;;;5024674;28;20869;-72
2021/12/21 03:50:11;;;;;;;12.63;2.78;;;-1.10;57.30;;;;;;5019961;28;20449;-73
2021/12/21 03:52:09;;;;;;;9.52;2.80;;;-1.20;56.60;;;;;;5024693;28;20411;-71
2021/12/21 03:54:36;;;;;;;10.30;3.53;;;-1.20;57.20;;;;;;5032389;28;20457;-72
2021/12/21 03:57:02;;;;;;;10.95;4.00;;;-1.30;58.20;;;;;;5027280;28;20400;-73
2021/12/21 03:59:28;;;;;;;9.95;3.85;;;-1.50;60.10;;;;;;5032065;28;20741;-73
2021/12/21 04:01:54;;;;;;;5.32;3.08;;;-1.50;61.20;;;;;;5030789;28;20395;-72
2021/12/21 04:04:22;;;;;;;8.43;3.90;;;-1.60;62.10;;;;;;5033540;28;20430;-72
2021/12/21 04:06:48;;;;;;;10.93;5.05;;;-1.60;63.50;;;;;;5030919;28;20391;-72
2021/12/21 04:09:15;;;;;;;6.30;3.85;;;-1.60;64.80;;;;;;5031200;28;20470;-73
2021/12/21 04:11:41;;;;;;;5.65;3.53;;;-1.60;65.80;;;;;;5031073;28;20429;-73
2021/12/21 04:14:07;;;;;;;8.63;3.47;;;-1.60;66.70;;;;;;5031931;28;20387;-75
2021/12/21 04:16:33;;;;;;;11.30;4.45;;;-1.60;67.00;;;;;;5023327;28;20398;-73
2021/12/21 04:18:59;;;;;;;8.48;3.40;;;-1.60;67.00;;;;;;5031813;28;20399;-72
2021/12/21 04:21:25;;;;;;;11.20;4.20;;;-1.60;67.10;;;;;;5030209;28;20474;-73
2021/12/21 04:23:50;;;;;;;6.13;2.83;;;-1.60;67.50;;;;;;5030714;28;20384;-73
2021/12/21 04:26:17;;;;;;;7.27;3.00;;;-1.60;67.70;;;;;;5011766;28;20914;-72
2021/12/21 04:28:44;;;;;;;7.63;3.05;;;-1.60;68.10;;;;;;5012588;28;20385;-73
2021/12/21 04:31:10;;;;;;;7.15;3.55;;;-1.60;66.60;;;;;;5011710;28;20477;-73
2021/12/21 04:33:37;;;;;;;7.05;3.40;;;-1.60;66.70;;;;;;5023600;28;20421;-73
2021/12/21 04:36:04;;;;;;;5.50;3.38;;;-1.60;66.80;;;;;;5031565;28;20384;-73
2021/12/21 04:38:35;;;;;;;7.00;3.40;;;-1.50;65.70;;;;;;5030660;28;20894;-73
2021/12/21 04:41:12;;;;;;;11.32;4.10;;;-1.60;65.80;;;;;;5011777;28;20492;-73
2021/12/21 04:43:38;;;;;;;6.22;4.03;;;-1.70;66.50;;;;;;5013485;28;20401;-73
2021/12/21 04:46:04;;;;;;;5.87;3.40;;;-1.70;68.10;;;;;;5033821;28;20429;-73
2021/12/21 04:48:30;;;;;;;7.90;3.30;;;-1.60;69.60;;;;;;5027006;28;20426;-73
2021/12/21 04:50:56;;;;;;;9.43;4.28;;;-1.40;69.70;;;;;;5034881;28;20398;-73
2021/12/21 04:53:22;;;;;;;7.68;3.30;;;-1.50;66.60;;;;;;5040685;28;20410;-72
2021/12/21 04:55:48;;;;;;;14.50;5.10;;;-1.60;66.80;;;;;;5050161;28;20490;-72
2021/12/21 04:58:14;;;;;;;11.32;4.18;;;-1.60;66.70;;;;;;5033922;28;20417;-73
2021/12/21 05:00:40;;;;;;;8.55;3.80;;;-1.70;67.70;;;;;;5032794;28;20445;-73
2021/12/21 05:03:06;;;;;;;11.38;3.90;;;-1.70;68.40;;;;;;5034085;28;20486;-73
2021/12/21 05:05:32;;;;;;;7.60;4.68;;;-1.80;69.10;;;;;;5033295;28;20445;-73
2021/12/21 05:10:44;;;;;;;11.93;4.30;;;-1.60;68.00;;;;;;5014092;28;20940;-73
2021/12/21 05:13:11;;;;;;;11.23;4.60;;;-1.50;67.10;;;;;;5034924;28;20423;-74
2021/12/21 05:15:37;;;;;;;8.20;4.18;;;-1.60;68.10;;;;;;5033479;28;20514;-72
2021/12/21 05:18:02;;;;;;;11.03;5.00;;;-1.60;69.40;;;;;;5033366;28;20884;-73
2021/12/21 05:20:28;;;;;;;9.90;5.20;;;-1.40;68.10;;;;;;5031831;28;20379;-73
2021/12/21 05:22:54;;;;;;;13.00;5.97;;;-1.40;68.30;;;;;;5027913;28;20817;-73
2021/12/21 05:25:20;;;;;;;13.80;5.50;;;-1.40;67.00;;;;;;5018157;28;20778;-74
2021/12/21 05:27:45;;;;;;;13.60;6.43;;;-1.50;67.50;;;;;;5031893;28;20832;-75
2021/12/21 05:30:12;;;;;;;14.80;5.90;;;-1.50;68.10;;;;;;5031586;28;20463;-73
2021/12/21 05:32:38;;;;;;;17.55;6.38;;;-1.50;68.10;;;;;;5031615;28;20403;-74
2021/12/21 05:35:04;;;;;;;13.07;6.07;;;-1.60;68.50;;;;;;5047831;28;20374;-75
2021/12/21 05:37:30;;;;;;;15.27;5.80;;;-1.60;67.80;;;;;;5037741;28;20417;-73
2021/12/21 05:40:01;;;;;;;12.88;5.75;;;-1.60;68.20;;;;;;5020390;28;20403;-73
2021/12/21 05:42:27;;;;;;;10.68;6.03;;;-1.60;69.00;;;;;;5029904;28;20405;-74
2021/12/21 05:44:53;;;;;;;14.80;5.97;;;-1.60;68.30;;;;;;5030991;28;20387;-73
2021/12/21 05:47:18;;;;;;;11.80;5.70;;;-1.50;68.10;;;;;;5030802;28;20402;-72
2021/12/21 05:49:45;;;;;;;15.23;7.75;;;-1.40;66.10;;;;;;5020004;28;20405;-73
2021/12/21 05:52:11;;;;;;;17.17;6.03;;;-1.40;65.10;;;;;;5032741;28;20403;-73
2021/12/21 05:54:36;;;;;;;14.75;6.55;;;-1.60;66.40;;;;;;5033024;28;20752;-72
2021/12/21 05:57:03;;;;;;;13.95;5.43;;;-1.70;68.30;;;;;;5020645;28;20514;-72
2021/12/21 05:59:28;;;;;;;10.70;5.00;;;-1.80;68.80;;;;;;5026490;28;20466;-72
2021/12/21 06:01:54;;;;;;;17.63;6.53;;;-1.80;69.20;;;;;;5034854;28;20442;-70
2021/12/21 06:04:21;;;;;;;12.68;6.60;;;-1.60;69.70;;;;;;5042868;28;20430;-72
2021/12/21 06:06:47;;;;;;;21.15;9.00;;;-1.30;64.50;;;;;;5026185;28;20421;-72
2021/12/21 06:09:14;;;;;;;22.43;8.60;;;-1.50;64.90;;;;;;5036962;28;20394;-73
2021/12/21 06:11:55;;;;;;;14.68;6.70;;;-1.60;66.50;;;;;;5036175;28;20498;-71
2021/12/21 06:27:31;;;;;;;22.42;7.85;;;-1.30;69.50;;;;;;5034694;28;20418;-71
2021/12/21 06:29:57;;;;;;;17.08;7.72;;;-1.30;66.10;;;;;;5032178;28;20399;-72
2021/12/21 06:32:23;;;;;;;19.50;8.17;;;-1.40;67.40;;;;;;5008679;28;20428;-73
2021/12/21 06:34:49;;;;;;;21.50;9.60;;;-1.60;70.00;;;;;;5021147;28;20461;-74
2021/12/21 06:37:14;;;;;;;12.60;6.10;;;-1.70;71.70;;;;;;5034811;28;20398;-74
2021/12/21 06:39:40;;;;;;;17.80;7.70;;;-1.70;73.40;;;;;;5033295;28;20423;-72
2021/12/21 06:42:06;;;;;;;16.17;8.37;;;-1.70;73.70;;;;;;5011879;28;20437;-72
2021/12/21 06:44:33;;;;;;;20.90;7.13;;;-1.70;74.70;;;;;;5015083;28;20392;-72
2021/12/21 06:52:19;;;;;;;12.73;5.85;;;-1.80;74.20;;;;;;5015754;28;20929;-73
2021/12/21 06:54:44;;;;;;;14.05;7.05;;;-1.40;72.10;;;;;;5023669;28;20407;-72
2021/12/21 06:57:10;;;;;;;19.48;7.72;;;-1.30;69.20;;;;;;5015419;28;20678;-72
2021/12/21 06:59:36;;;;;;;26.93;9.97;;;-1.50;69.80;;;;;;5025211;28;20462;-72
2021/12/21 07:02:02;;;;;;;14.73;7.10;;;-1.60;69.80;;;;;;5010644;28;20896;-72
2021/12/21 07:04:28;;;;;;;21.37;8.00;;;-1.50;70.20;;;;;;5014913;28;20392;-73
2021/12/21 07:06:55;;;;;;;17.65;7.93;;;-1.30;67.70;;;;;;5028648;28;20394;-73
2021/12/21 07:09:37;;;;;;;16.00;7.60;;;-1.50;67.90;;;;;;5022676;28;20427;-72
2021/12/21 07:20:00;;;;;;;24.70;10.35;;;-1.80;70.50;;;;;;5018294;28;20401;-72
2021/12/21 07:22:25;;;;;;;21.73;9.05;;;-1.90;72.00;;;;;;5015626;28;20409;-73
2021/12/21 07:24:51;;;;;;;16.52;8.98;;;-1.90;73.20;;;;;;5011518;28;20487;-74
2021/12/21 07:27:17;;;;;;;20.60;7.90;;;-1.90;73.70;;;;;;4996499;28;20771;-74
2021/12/21 07:29:42;;;;;;;18.13;7.45;;;-1.90;74.30;;;;;;4998806;28;20406;-73
2021/12/21 07:32:08;;;;;;;16.85;6.90;;;-1.70;73.70;;;;;;5015097;28;20503;-72
2021/12/21 07:34:33;;;;;;;16.43;7.30;;;-1.70;73.10;;;;;;5012021;28;20407;-73
2021/12/21 07:36:59;;;;;;;22.02;8.98;;;-1.70;72.30;;;;;;5014035;28;20399;-72
2021/12/21 07:39:24;;;;;;;13.85;7.85;;;-1.80;72.80;;;;;;5009251;28;20960;-72
2021/12/21 07:41:50;;;;;;;23.77;8.70;;;-1.80;73.50;;;;;;5005520;28;20408;-72
2021/12/21 07:44:16;;;;;;;17.37;8.17;;;-1.80;75.40;;;;;;5008726;28;20952;-74
2021/12/21 07:46:42;;;;;;;17.48;6.68;;;-1.80;75.40;;;;;;5008622;28;20402;-76
2021/12/21 07:49:09;;;;;;;16.35;6.60;;;-1.70;76.50;;;;;;5007381;28;20890;-78
2021/12/21 07:51:34;;;;;;;20.30;7.55;;;-1.40;73.90;;;;;;5011119;28;20500;-73
2021/12/21 07:54:00;;;;;;;26.40;7.72;;;-1.50;71.30;;;;;;5010704;28;20905;-74
2021/12/21 07:56:26;;;;;;;22.00;8.97;;;-1.50;72.00;;;;;;5002304;28;20507;-73
2021/12/21 07:58:51;;;;;;;14.13;7.50;;;-1.60;72.50;;;;;;5016670;28;20414;-74
2021/12/21 08:01:17;;;;;;;15.00;6.55;;;-1.60;73.80;;;;;;5016010;28;20392;-74
2021/12/21 08:03:43;;;;;;;16.40;6.33;;;-1.40;73.10;;;;;;5017826;28;20402;-75
2021/12/21 08:06:12;;;;;;;11.82;6.60;;;-1.40;71.10;;;;;;5032217;28;20402;-76
2021/12/21 08:08:41;;;;;;;20.33;7.75;;;-1.20;68.90;;;;;;5033429;28;20411;-73
2021/12/21 08:12:10;;;;;;;18.27;7.15;;;-1.30;68.40;;;;;;5004922;28;20533;-73
2021/12/21 08:14:13;;;;;;;16.33;7.32;;;-1.30;68.60;;;;;;5013292;28;20405;-73
2021/12/21 08:16:39;;;;;;;13.02;6.78;;;-1.20;69.50;;;;;;5014598;28;20743;-75
2021/12/21 08:19:04;;;;;;;24.73;8.30;;;-1.10;67.70;;;;;;5033940;28;20403;-73
2021/12/21 08:21:31;;;;;;;18.17;7.38;;;-1.20;68.10;;;;;;5019107;28;20392;-75
2021/12/21 08:23:57;;;;;;;13.82;6.82;;;-1.20;69.00;;;;;;5030673;28;20391;-74
2021/12/21 08:26:23;;;;;;;18.63;8.73;;;-1.10;69.70;;;;;;5012379;28;20420;-74
2021/12/21 08:28:49;;;;;;;17.88;8.50;;;-1.10;70.80;;;;;;5029189;28;20755;-73
2021/12/21 08:31:16;;;;;;;14.98;7.13;;;-1.10;70.70;;;;;;5035319;28;20433;-75
2021/12/21 08:33:42;;;;;;;23.15;9.63;;;-1.00;70.90;;;;;;5034599;28;20407;-74
2021/12/21 08:36:10;;;;;;;17.17;6.90;;;-1.00;70.40;;;;;;5025417;28;20412;-76
2021/12/21 08:38:38;;;;;;;16.50;7.97;;;-0.80;69.70;;;;;;5013039;28;20431;-75
2021/12/21 08:41:04;;;;;;;18.35;7.40;;;-0.80;69.10;;;;;;5003084;28;20431;-74
2021/12/21 08:43:32;;;;;;;17.42;8.55;;;-0.70;69.20;;;;;;5009416;28;20560;-73
2021/12/21 08:45:59;;;;;;;16.35;7.43;;;-0.60;68.70;;;;;;5015698;28;20402;-73
2021/12/21 08:48:26;;;;;;;17.02;8.10;;;-0.60;68.10;;;;;;5018983;28;20400;-74
2021/12/21 08:50:54;;;;;;;21.70;9.32;;;-0.40;68.20;;;;;;5030021;28;20476;-73
2021/12/21 08:53:24;;;;;;;28.13;9.30;;;-0.40;66.60;;;;;;5017511;28;20418;-73
2021/12/21 08:55:52;;;;;;;17.63;7.63;;;-0.30;66.50;;;;;;5011921;28;20484;-74
2021/12/21 08:58:18;;;;;;;20.23;8.82;;;-0.20;64.70;;;;;;5027356;28;20403;-73
2021/12/21 09:00:44;;;;;;;14.53;7.47;;;-0.10;64.20;;;;;;5014244;28;20768;-74
2021/12/21 09:03:10;;;;;;;15.82;7.25;;;0.20;63.40;;;;;;5004408;28;20435;-73
2021/12/21 09:05:37;;;;;;;17.40;8.00;;;1.40;59.50;;;;;;5013473;28;20624;-77
2021/12/21 09:08:04;;;;;;;21.05;7.60;;;2.20;46.60;;;;;;5013325;28;20401;-76
2021/12/21 09:10:31;;;;;;;14.90;6.97;;;3.10;40.60;;;;;;5004618;28;20413;-76
2021/12/21 09:12:57;;;;;;;20.05;7.60;;;3.30;37.50;;;;;;5016667;28;20730;-75
2021/12/21 09:15:24;;;;;;;19.25;8.57;;;2.90;37.10;;;;;;5010021;28;21034;-75
2021/12/21 09:17:50;;;;;;;18.08;8.10;;;2.60;39.20;;;;;;5002889;28;20436;-76
2021/12/21 09:20:21;;;;;;;22.50;8.10;;;2.30;40.10;;;;;;5003136;28;20409;-75
2021/12/21 09:22:48;;;;;;;22.55;8.30;;;1.70;42.10;;;;;;5011932;28;20397;-77
2021/12/21 09:25:14;;;;;;;26.00;8.43;;;1.60;43.80;;;;;;5020742;28;20479;-75
2021/12/21 09:27:41;;;;;;;20.40;8.25;;;1.50;45.50;;;;;;5016238;28;20940;-76
2021/12/21 09:30:10;;;;;;;22.52;7.18;;;1.40;45.00;;;;;;5019292;28;20456;-77
2021/12/21 09:32:35;;;;;;;14.57;5.80;;;1.60;44.10;;;;;;5022394;28;20459;-77
2021/12/21 09:35:02;;;;;;;16.53;5.93;;;1.60;43.30;;;;;;5017938;28;20801;-76
2021/12/21 09:37:27;;;;;;;13.45;5.90;;;1.60;43.50;;;;;;5013556;28;20439;-76
2021/12/21 09:39:55;;;;;;;14.47;6.87;;;1.70;42.20;;;;;;5042215;28;20402;-77
2021/12/21 09:42:24;;;;;;;19.95;7.50;;;1.90;42.50;;;;;;5022127;28;20541;-77
2021/12/21 09:44:50;;;;;;;14.47;6.20;;;2.00;40.20;;;;;;5003970;28;20402;-76
2021/12/21 09:47:16;;;;;;;20.95;7.35;;;2.10;40.10;;;;;;5002402;28;20405;-76
2021/12/21 09:49:44;;;;;;;19.55;7.28;;;2.20;40.00;;;;;;5037206;28;20419;-76
2021/12/21 09:52:12;;;;;;;20.55;7.30;;;2.20;39.90;;;;;;5003117;28;20410;-76
2021/12/21 09:54:38;;;;;;;18.08;5.63;;;2.20;40.60;;;;;;5004722;28;20805;-77
2021/12/21 09:57:06;;;;;;;22.02;6.55;;;2.60;38.70;;;;;;5014792;28;20484;-78
2021/12/21 09:59:31;;;;;;;16.30;6.15;;;2.60;38.60;;;;;;5010400;28;20405;-76
2021/12/21 10:01:58;;;;;;;18.53;7.23;;;2.50;38.90;;;;;;5011620;28;20462;-75
2021/12/21 10:04:25;;;;;;;19.98;6.90;;;2.30;39.50;;;;;;5005414;28;20410;-75
2021/12/21 10:06:54;;;;;;;16.83;6.45;;;2.20;38.90;;;;;;5012063;28;20395;-76
2021/12/21 10:09:23;;;;;;;16.98;5.70;;;2.30;39.50;;;;;;4999035;28;20831;-75
2021/12/21 10:11:50;;;;;;;10.10;5.50;;;2.30;38.60;;;;;;5014224;28;20843;-76
2021/12/21 10:14:23;;;;;;;9.48;4.80;;;2.30;37.70;;;;;;5017399;28;20384;-76
2021/12/21 10:17:00;;;;;;;12.32;5.10;;;2.30;37.80;;;;;;5039659;28;20393;-75
2021/12/21 10:19:25;;;;;;;7.72;4.72;;;2.40;36.50;;;;;;5014839;28;20432;-79
2021/12/21 10:21:51;;;;;;;12.68;5.53;;;2.40;37.20;;;;;;5003405;28;20401;-75
2021/12/21 10:24:28;;;;;;;11.27;5.20;;;2.50;37.00;;;;;;5010745;28;20397;-75
2021/12/21 10:27:07;;;;;;;11.43;4.78;;;2.70;36.60;;;;;;4995921;28;20498;-74
2021/12/21 10:29:47;;;;;;;18.40;7.20;;;2.70;36.50;;;;;;5009443;28;20742;-75
2021/12/21 10:32:24;;;;;;;13.35;5.78;;;2.80;36.50;;;;;;5003333;28;20406;-75
2021/12/21 10:35:03;;;;;;;13.15;6.25;;;2.80;36.20;;;;;;5009893;28;20428;-75
2021/12/21 10:37:31;;;;;;;11.68;5.03;;;2.70;37.00;;;;;;5011465;28;20389;-76
2021/12/21 10:40:26;;;;;;;16.35;5.35;;;2.70;36.50;;;;;;5011272;28;20401;-75
2021/12/21 10:42:58;;;;;;;14.48;6.40;;;2.70;36.60;;;;;;5023775;28;20393;-75
2021/12/21 10:45:28;;;;;;;20.42;6.72;;;3.00;36.20;;;;;;5017002;28;20410;-74
2021/12/21 10:47:55;;;;;;;11.63;5.60;;;3.10;35.30;;;;;;5018406;28;20397;-74
2021/12/21 10:50:22;;;;;;;10.48;5.13;;;3.10;34.90;;;;;;5010750;28;20411;-75
2021/12/21 10:52:51;;;;;;;11.88;5.40;;;3.10;34.90;;;;;;5012795;28;20837;-74
2021/12/21 10:55:22;;;;;;;16.80;4.83;;;3.20;34.90;;;;;;5012506;28;20409;-73
2021/12/21 10:57:48;;;;;;;17.75;5.93;;;3.40;34.60;;;;;;5006929;28;20844;-73
2021/12/21 11:00:16;;;;;;;16.67;6.40;;;3.30;34.60;;;;;;5008146;28;20481;-74
2021/12/21 11:02:43;;;;;;;13.82;5.80;;;3.30;34.90;;;;;;5001438;28;20440;-74
2021/12/21 11:05:12;;;;;;;9.02;4.35;;;3.60;33.70;;;;;;5010772;28;20475;-75
2021/12/21 11:07:47;;;;;;;14.60;6.70;;;3.50;34.00;;;;;;5020305;28;20397;-75
2021/12/21 11:10:16;;;;;;;13.82;6.82;;;3.60;33.80;;;;;;5011922;28;20417;-76
2021/12/21 11:13:07;;;;;;;11.35;5.43;;;3.50;34.30;;;;;;5014056;28;20420;-74
2021/12/21 11:15:53;;;;;;;12.00;5.50;;;3.70;34.20;;;;;;5012669;28;20400;-75
2021/12/21 11:18:22;;;;;;;12.43;5.50;;;3.60;34.00;;;;;;5014438;28;20410;-77
2021/12/21 11:20:54;;;;;;;13.63;5.80;;;3.60;34.20;;;;;;5003346;28;20404;-75
2021/12/21 11:23:21;;;;;;;15.15;4.90;;;3.70;34.50;;;;;;5014056;28;20729;-76
2021/12/21 11:25:49;;;;;;;12.88;5.00;;;3.80;34.10;;;;;;5013902;28;20409;-75
2021/12/21 11:28:25;;;;;;;10.70;5.40;;;3.70;33.90;;;;;;5014257;28;20444;-75
2021/12/21 11:30:52;;;;;;;14.18;5.93;;;3.90;34.00;;;;;;5016828;28;20487;-76
2021/12/21 11:33:19;;;;;;;13.13;6.20;;;3.90;33.10;;;;;;5010770;28;20402;-75
2021/12/21 11:38:30;;;;;;;13.30;6.03;;;3.90;33.10;;;;;;5005697;28;20494;-74
2021/12/21 11:40:56;;;;;;;16.65;6.80;;;3.90;33.10;;;;;;5010682;28;20473;-78
2021/12/21 11:43:32;;;;;;;15.02;6.10;;;3.90;33.40;;;;;;5012415;28;20449;-74
2021/12/21 11:46:02;;;;;;;11.60;5.90;;;4.00;33.20;;;;;;5006515;28;20745;-74
2021/12/21 11:48:52;;;;;;;12.60;5.55;;;4.20;32.00;;;;;;5004858;28;20412;-74
2021/12/21 11:51:24;;;;;;;12.98;5.50;;;4.10;31.90;;;;;;5007988;28;20762;-75
2021/12/21 11:53:51;;;;;;;9.25;5.10;;;4.10;32.00;;;;;;5011940;28;20813;-74
2021/12/21 11:56:21;;;;;;;7.25;4.70;;;4.10;31.80;;;;;;5009514;28;20454;-74
2021/12/21 11:58:49;;;;;;;9.52;4.93;;;4.10;32.50;;;;;;5007570;28;20429;-74
2021/12/21 12:01:23;;;;;;;8.80;4.05;;;4.20;31.70;;;;;;5038628;28;20408;-74
2021/12/21 12:04:11;;;;;;;9.90;4.55;;;4.30;31.10;;;;;;5008701;28;20770;-74
2021/12/21 12:06:53;;;;;;;12.27;4.82;;;4.20;31.10;;;;;;5006183;28;20494;-74
2021/12/21 12:09:25;;;;;;;9.68;4.60;;;4.20;31.80;;;;;;5013846;28;20442;-73
2021/12/21 12:11:52;;;;;;;9.27;4.78;;;4.40;31.00;;;;;;5006401;28;20516;-74
2021/12/21 12:14:21;;;;;;;8.90;4.63;;;4.40;30.80;;;;;;5004551;28;20919;-74
2021/12/21 12:16:54;;;;;;;8.10;4.00;;;4.30;30.90;;;;;;5007809;28;20453;-73
2021/12/21 12:19:30;;;;;;;9.38;4.53;;;4.30;30.90;;;;;;5010539;28;20863;-75
2021/12/21 12:22:08;;;;;;;7.95;4.47;;;4.30;31.60;;;;;;5007040;28;20414;-74
2021/12/21 12:24:37;;;;;;;8.38;3.70;;;4.40;31.70;;;;;;5025759;28;20397;-75
2021/12/21 12:27:08;;;;;;;7.10;4.00;;;4.50;30.70;;;;;;5017410;28;20400;-75
2021/12/21 12:29:49;;;;;;;15.15;3.80;;;4.60;30.20;;;;;;5023345;28;20393;-75
2021/12/21 12:32:16;;;;;;;6.13;3.63;;;4.60;29.80;;;;;;4999797;28;20409;-73
2021/12/21 12:34:42;;;;;;;10.45;4.07;;;4.50;29.90;;;;;;5014369;28;20782;-75
2021/12/21 12:37:23;;;;;;;7.72;3.50;;;4.60;29.80;;;;;;5039700;28;20404;-73
2021/12/21 12:39:54;;;;;;;8.07;3.00;;;4.40;29.70;;;;;;5008008;28;20847;-75
2021/12/21 12:42:25;;;;;;;8.40;3.30;;;4.60;29.30;;;;;;5007761;28;20413;-75
2021/12/21 12:45:11;;;;;;;3.60;2.70;;;4.60;28.90;;;;;;5011462;28;20403;-75
2021/12/21 12:47:49;;;;;;;8.25;3.28;;;4.70;28.20;;;;;;5013390;28;20404;-75
2021/12/21 12:50:20;;;;;;;8.45;3.55;;;4.60;29.10;;;;;;5002328;28;20424;-74
2021/12/21 12:52:56;;;;;;;12.13;3.20;;;4.70;29.10;;;;;;5004132;28;20476;-76
2021/12/21 12:55:24;;;;;;;4.43;3.00;;;4.60;29.00;;;;;;5011866;28;20435;-75
2021/12/21 12:58:00;;;;;;;6.25;3.00;;;4.60;29.10;;;;;;5009140;28;20455;-74
2021/12/21 13:00:29;;;;;;;4.45;2.72;;;4.50;29.30;;;;;;5009453;28;20400;-75
2021/12/21 13:03:01;;;;;;;12.27;3.30;;;4.70;28.80;;;;;;5004293;28;20411;-75
2021/12/21 13:05:34;;;;;;;12.50;3.80;;;4.80;29.00;;;;;;5007256;28;20443;-75
2021/12/21 13:08:15;;;;;;;8.30;3.33;;;4.80;29.10;;;;;;5003948;28;20404;-74
2021/12/21 13:10:44;;;;;;;11.27;3.40;;;4.80;29.30;;;;;;5010323;28;20436;-75
2021/12/21 13:13:10;;;;;;;7.28;4.35;;;4.90;29.10;;;;;;5007687;28;20408;-75
2021/12/21 13:15:38;;;;;;;9.65;4.72;;;4.80;29.10;;;;;;5009573;28;20487;-74
2021/12/21 13:18:06;;;;;;;6.28;3.65;;;4.60;30.00;;;;;;5011340;28;20393;-74
2021/12/21 13:20:37;;;;;;;7.05;3.40;;;4.70;29.60;;;;;;5007125;28;20400;-72
2021/12/21 13:23:32;;;;;;;13.70;3.80;;;4.70;29.30;;;;;;5008962;28;20403;-72
2021/12/21 13:26:07;;;;;;;8.38;3.80;;;4.60;30.10;;;;;;4997834;28;20417;-74
2021/12/21 13:28:52;;;;;;;9.10;4.40;;;4.90;29.20;;;;;;5010781;28;20913;-74
2021/12/21 13:31:20;;;;;;;5.90;3.78;;;4.60;29.90;;;;;;5012518;28;20401;-76
2021/12/21 13:33:53;;;;;;;8.00;3.90;;;4.70;30.50;;;;;;5010424;28;21448;-77
2021/12/21 13:36:36;;;;;;;8.30;4.00;;;5.20;28.10;;;;;;5013476;28;20902;-75
2021/12/21 13:39:18;;;;;;;5.40;3.33;;;5.40;27.60;;;;;;5011945;28;20401;-75
2021/12/21 13:41:51;;;;;;;7.07;3.50;;;5.30;27.70;;;;;;5005769;28;20399;-75
2021/12/21 13:44:29;;;;;;;11.03;5.60;;;5.00;28.70;;;;;;5010727;28;20407;-74
2021/12/21 13:46:58;;;;;;;8.20;4.47;;;4.60;30.40;;;;;;5012579;28;20447;-74
2021/12/21 13:49:24;;;;;;;7.23;3.90;;;4.50;31.00;;;;;;5038105;28;20399;-76
2021/12/21 13:51:52;;;;;;;10.15;4.28;;;4.40;31.40;;;;;;5007531;28;20403;-75
2021/12/21 13:54:18;;;;;;;11.50;4.65;;;4.50;30.90;;;;;;5008702;28;20403;-75